ETH357 DNMM-EFHK
Flight info
| Callsign | ETH357 |
|---|---|
| Flight time | N/A |
| Altitude | 39000 |
| Route | BUDS1S BUDSI UB731 KIGRA UM114 BIDOM UG855 BOD UG362 EBA UP161 TUC UM725 SIRVI UG727 NIBEL DCT RUVIP DCT TIBER DCT BAXON DCT NAKUM DCT PISAM DCT ELVOT DCT MOLIL T720 GRUDA N191 NIKMI DCT GARSO P733 LATEG DCT DIVAM DIVA5B |
| Aircraft | A359/H-SDE2E3GHIJ3J4J5LM1ORWXY/LB1D1 |
Departure
| Time | N/A |
|---|---|
| Airport | Murtala Muhammed International Airport (DNMM) |
Arrival
| Time | 2026-04-26 09:58 |
|---|---|
| Airport | Helsinki Vantaa Airport (EFHK) |
| Time | Latitude | Longitude | Altitude | Speed | Heading |
|---|---|---|---|---|---|
| 2026-04-26 07:30 | 43.93925 | 13.26717 | 39095 ft | 480 kts | 18° |
| 2026-04-26 07:31 | 43.97126 | 13.28021 | 39102 ft | 480 kts | 18° |
| 2026-04-26 07:31 | 44.03551 | 13.30641 | 39102 ft | 480 kts | 18° |
| 2026-04-26 07:32 | 44.09962 | 13.33262 | 39102 ft | 480 kts | 18° |
| 2026-04-26 07:32 | 44.16369 | 13.35887 | 39103 ft | 480 kts | 18° |
| 2026-04-26 07:33 | 44.22774 | 13.38517 | 39103 ft | 480 kts | 18° |
| 2026-04-26 07:33 | 44.29156 | 13.41143 | 39103 ft | 480 kts | 18° |
| 2026-04-26 07:34 | 44.35573 | 13.43790 | 39103 ft | 480 kts | 18° |
| 2026-04-26 07:34 | 44.41956 | 13.46429 | 39228 ft | 481 kts | 18° |
| 2026-04-26 07:34 | 44.45177 | 13.47716 | 39429 ft | 482 kts | 17° |
| 2026-04-26 07:35 | 44.48433 | 13.48929 | 39509 ft | 485 kts | 16° |
| 2026-04-26 07:35 | 44.55025 | 13.51304 | 39755 ft | 489 kts | 16° |
| 2026-04-26 07:35 | 44.58317 | 13.52497 | 39962 ft | 488 kts | 16° |
| 2026-04-26 07:36 | 44.61611 | 13.53700 | 40093 ft | 490 kts | 16° |
| 2026-04-26 07:36 | 44.68206 | 13.56139 | 40289 ft | 494 kts | 16° |
| 2026-04-26 07:36 | 44.71543 | 13.57382 | 40421 ft | 495 kts | 16° |
| 2026-04-26 07:37 | 44.74874 | 13.58626 | 40540 ft | 496 kts | 16° |
| 2026-04-26 07:37 | 44.78212 | 13.59874 | 40643 ft | 498 kts | 16° |
| 2026-04-26 07:37 | 44.81572 | 13.61131 | 40762 ft | 499 kts | 16° |
| 2026-04-26 07:37 | 44.84937 | 13.62392 | 40880 ft | 500 kts | 16° |
| 2026-04-26 07:38 | 44.88314 | 13.63658 | 40986 ft | 501 kts | 16° |
| 2026-04-26 07:38 | 44.95074 | 13.66196 | 41077 ft | 503 kts | 16° |
| 2026-04-26 07:39 | 45.01803 | 13.68728 | 41074 ft | 503 kts | 16° |
| 2026-04-26 07:39 | 45.08567 | 13.71279 | 41078 ft | 503 kts | 16° |
| 2026-04-26 07:40 | 45.15349 | 13.73845 | 41077 ft | 504 kts | 16° |
| 2026-04-26 07:40 | 45.22135 | 13.76418 | 41078 ft | 504 kts | 15° |
| 2026-04-26 07:41 | 45.28867 | 13.78979 | 41074 ft | 504 kts | 15° |
| 2026-04-26 07:41 | 45.35658 | 13.81568 | 41071 ft | 504 kts | 14° |
| 2026-04-26 07:42 | 45.42424 | 13.84151 | 41075 ft | 503 kts | 14° |
| 2026-04-26 07:42 | 45.49167 | 13.86731 | 41076 ft | 501 kts | 14° |
| 2026-04-26 07:43 | 45.55867 | 13.89303 | 41070 ft | 495 kts | 14° |
| 2026-04-26 07:43 | 45.62503 | 13.91856 | 41076 ft | 492 kts | 14° |
| 2026-04-26 07:44 | 45.69122 | 13.94409 | 41077 ft | 492 kts | 14° |
| 2026-04-26 07:44 | 45.75694 | 13.96950 | 41077 ft | 492 kts | 14° |
| 2026-04-26 07:45 | 45.82302 | 13.99511 | 41070 ft | 491 kts | 14° |
| 2026-04-26 07:45 | 45.88922 | 14.02084 | 41076 ft | 493 kts | 14° |
| 2026-04-26 07:46 | 45.94436 | 14.04232 | 41074 ft | 494 kts | 14° |
| 2026-04-26 07:46 | 46.02142 | 14.07241 | 41077 ft | 493 kts | 14° |
| 2026-04-26 07:47 | 46.08770 | 14.09835 | 41076 ft | 493 kts | 14° |
| 2026-04-26 07:47 | 46.15382 | 14.12430 | 41073 ft | 492 kts | 14° |
| 2026-04-26 07:48 | 46.20928 | 14.14613 | 41074 ft | 495 kts | 14° |
| 2026-04-26 07:48 | 46.27530 | 14.17216 | 41070 ft | 494 kts | 14° |
| 2026-04-26 07:49 | 46.34182 | 14.19845 | 41076 ft | 494 kts | 14° |
| 2026-04-26 07:49 | 46.40809 | 14.22473 | 41074 ft | 493 kts | 14° |
| 2026-04-26 07:50 | 46.50796 | 14.26442 | 41074 ft | 497 kts | 14° |
| 2026-04-26 07:50 | 46.57444 | 14.29096 | 41153 ft | 492 kts | 13° |
| 2026-04-26 07:51 | 46.63997 | 14.31718 | 41157 ft | 491 kts | 13° |
| 2026-04-26 07:51 | 46.70597 | 14.34360 | 41157 ft | 491 kts | 13° |
| 2026-04-26 07:52 | 46.77179 | 14.37106 | 41159 ft | 492 kts | 15° |
| 2026-04-26 07:52 | 46.83715 | 14.40157 | 41157 ft | 493 kts | 16° |
| 2026-04-26 07:53 | 46.90212 | 14.43225 | 41158 ft | 494 kts | 15° |
| 2026-04-26 07:53 | 46.96763 | 14.46274 | 41156 ft | 494 kts | 15° |
| 2026-04-26 07:54 | 47.03341 | 14.49317 | 41157 ft | 497 kts | 15° |
| 2026-04-26 07:54 | 47.09930 | 14.52367 | 41156 ft | 497 kts | 15° |
| 2026-04-26 07:55 | 47.16560 | 14.55446 | 41158 ft | 500 kts | 15° |
| 2026-04-26 07:55 | 47.23179 | 14.58535 | 41130 ft | 497 kts | 14° |
| 2026-04-26 07:56 | 47.29725 | 14.61595 | 41129 ft | 498 kts | 14° |
| 2026-04-26 07:56 | 47.36369 | 14.64702 | 41131 ft | 502 kts | 14° |
| 2026-04-26 07:57 | 47.43024 | 14.67825 | 41130 ft | 501 kts | 14° |
| 2026-04-26 07:57 | 47.49648 | 14.70946 | 41131 ft | 499 kts | 14° |
| 2026-04-26 07:58 | 47.56232 | 14.74058 | 41126 ft | 499 kts | 14° |
| 2026-04-26 07:58 | 47.62836 | 14.77185 | 41126 ft | 496 kts | 14° |
| 2026-04-26 07:59 | 47.69407 | 14.80304 | 41128 ft | 495 kts | 14° |
| 2026-04-26 07:59 | 47.75977 | 14.83427 | 41134 ft | 496 kts | 14° |
| 2026-04-26 08:00 | 47.82568 | 14.86569 | 41132 ft | 497 kts | 14° |
| 2026-04-26 08:00 | 47.89150 | 14.89720 | 41131 ft | 496 kts | 14° |
| 2026-04-26 08:01 | 47.95674 | 14.92851 | 41131 ft | 495 kts | 14° |
| 2026-04-26 08:01 | 48.02227 | 14.96005 | 41131 ft | 494 kts | 14° |
| 2026-04-26 08:02 | 48.08768 | 14.99161 | 41130 ft | 493 kts | 14° |
| 2026-04-26 08:02 | 48.15298 | 15.02320 | 41129 ft | 492 kts | 14° |
| 2026-04-26 08:03 | 48.21771 | 15.05457 | 41129 ft | 492 kts | 14° |
| 2026-04-26 08:03 | 48.28301 | 15.08630 | 41130 ft | 494 kts | 14° |
| 2026-04-26 08:04 | 48.34820 | 15.11808 | 41126 ft | 495 kts | 14° |
| 2026-04-26 08:04 | 48.41424 | 15.15037 | 41130 ft | 496 kts | 14° |
| 2026-04-26 08:05 | 48.47990 | 15.18254 | 41131 ft | 496 kts | 14° |
| 2026-04-26 08:05 | 48.54520 | 15.21467 | 41238 ft | 496 kts | 14° |
| 2026-04-26 08:06 | 48.61079 | 15.24700 | 41239 ft | 494 kts | 14° |
| 2026-04-26 08:06 | 48.67607 | 15.27924 | 41236 ft | 493 kts | 14° |
| 2026-04-26 08:07 | 48.74139 | 15.31160 | 41237 ft | 493 kts | 14° |
| 2026-04-26 08:07 | 48.80630 | 15.34385 | 41240 ft | 493 kts | 14° |
| 2026-04-26 08:08 | 48.87154 | 15.37636 | 41238 ft | 493 kts | 14° |
| 2026-04-26 08:08 | 48.93653 | 15.41002 | 41235 ft | 494 kts | 16° |
| 2026-04-26 08:09 | 49.00047 | 15.44737 | 41239 ft | 495 kts | 17° |
| 2026-04-26 08:09 | 49.06466 | 15.48536 | 41240 ft | 495 kts | 17° |
| 2026-04-26 08:10 | 49.12901 | 15.52293 | 41238 ft | 494 kts | 17° |
| 2026-04-26 08:10 | 49.19336 | 15.56025 | 41213 ft | 495 kts | 16° |
| 2026-04-26 08:11 | 49.25786 | 15.59765 | 41212 ft | 495 kts | 16° |
| 2026-04-26 08:11 | 49.32193 | 15.63493 | 41210 ft | 495 kts | 16° |
| 2026-04-26 08:12 | 49.38632 | 15.67253 | 41210 ft | 495 kts | 16° |
| 2026-04-26 08:12 | 49.45075 | 15.71027 | 41211 ft | 495 kts | 16° |
| 2026-04-26 08:13 | 49.51511 | 15.74807 | 41210 ft | 494 kts | 16° |
| 2026-04-26 08:13 | 49.57907 | 15.78574 | 41211 ft | 494 kts | 16° |
| 2026-04-26 08:14 | 49.64337 | 15.82372 | 41212 ft | 495 kts | 16° |
| 2026-04-26 08:14 | 49.70773 | 15.86184 | 41212 ft | 495 kts | 17° |
| 2026-04-26 08:15 | 49.77211 | 15.90009 | 41210 ft | 495 kts | 17° |
| 2026-04-26 08:15 | 49.83637 | 15.93837 | 41241 ft | 495 kts | 17° |
| 2026-04-26 08:16 | 49.90059 | 15.97675 | 41240 ft | 494 kts | 17° |
| 2026-04-26 08:16 | 49.96459 | 16.01510 | 41235 ft | 493 kts | 17° |
| 2026-04-26 08:17 | 50.02818 | 16.05330 | 41238 ft | 493 kts | 17° |
| 2026-04-26 08:17 | 50.09238 | 16.09198 | 41240 ft | 493 kts | 17° |
| 2026-04-26 08:18 | 50.15634 | 16.13063 | 41239 ft | 493 kts | 17° |
| 2026-04-26 08:18 | 50.21992 | 16.16915 | 41237 ft | 493 kts | 17° |
| 2026-04-26 08:19 | 50.28388 | 16.20803 | 41239 ft | 493 kts | 17° |
| 2026-04-26 08:19 | 50.34788 | 16.24704 | 41239 ft | 494 kts | 17° |
| 2026-04-26 08:20 | 50.41203 | 16.28626 | 41239 ft | 495 kts | 17° |
| 2026-04-26 08:20 | 50.47621 | 16.32564 | 41237 ft | 494 kts | 16° |
| 2026-04-26 08:21 | 50.54027 | 16.36503 | 41240 ft | 493 kts | 16° |
| 2026-04-26 08:21 | 50.60369 | 16.40415 | 41238 ft | 492 kts | 16° |
| 2026-04-26 08:22 | 50.66672 | 16.44711 | 41240 ft | 496 kts | 21° |
| 2026-04-26 08:22 | 50.72849 | 16.49639 | 41239 ft | 498 kts | 22° |
| 2026-04-26 08:23 | 50.79022 | 16.54577 | 41238 ft | 495 kts | 21° |
| 2026-04-26 08:23 | 50.85194 | 16.59404 | 41239 ft | 494 kts | 21° |
| 2026-04-26 08:24 | 50.91362 | 16.64181 | 41238 ft | 493 kts | 21° |
| 2026-04-26 08:24 | 50.97496 | 16.68939 | 41240 ft | 493 kts | 21° |
| 2026-04-26 08:25 | 51.03664 | 16.73743 | 41240 ft | 493 kts | 21° |
| 2026-04-26 08:25 | 51.09836 | 16.78569 | 41238 ft | 493 kts | 21° |
| 2026-04-26 08:26 | 51.16003 | 16.83405 | 41239 ft | 494 kts | 21° |
| 2026-04-26 08:26 | 51.22125 | 16.88221 | 41237 ft | 494 kts | 21° |
| 2026-04-26 08:27 | 51.28275 | 16.93072 | 41237 ft | 494 kts | 21° |
| 2026-04-26 08:27 | 51.34445 | 16.97955 | 41239 ft | 494 kts | 21° |
| 2026-04-26 08:28 | 51.40604 | 17.02843 | 41235 ft | 494 kts | 21° |
| 2026-04-26 08:28 | 51.46768 | 17.07750 | 41240 ft | 494 kts | 21° |
| 2026-04-26 08:29 | 51.52923 | 17.12665 | 41239 ft | 494 kts | 21° |
| 2026-04-26 08:29 | 51.59034 | 17.17560 | 41235 ft | 494 kts | 21° |
| 2026-04-26 08:30 | 51.65184 | 17.22501 | 41237 ft | 494 kts | 21° |
| 2026-04-26 08:30 | 51.71334 | 17.27457 | 41242 ft | 494 kts | 21° |
| 2026-04-26 08:31 | 51.77449 | 17.32400 | 41237 ft | 494 kts | 21° |
| 2026-04-26 08:31 | 51.83596 | 17.37383 | 41237 ft | 494 kts | 21° |
| 2026-04-26 08:32 | 51.89734 | 17.42376 | 41236 ft | 494 kts | 21° |
| 2026-04-26 08:32 | 51.95878 | 17.47388 | 41237 ft | 494 kts | 21° |
| 2026-04-26 08:33 | 52.02018 | 17.52413 | 41235 ft | 494 kts | 21° |
| 2026-04-26 08:33 | 52.08159 | 17.57453 | 41235 ft | 494 kts | 21° |
| 2026-04-26 08:34 | 52.13259 | 17.61651 | 41238 ft | 494 kts | 21° |
| 2026-04-26 08:34 | 52.19387 | 17.66710 | 41240 ft | 494 kts | 21° |
| 2026-04-26 08:35 | 52.26508 | 17.72607 | 41239 ft | 494 kts | 21° |
| 2026-04-26 08:35 | 52.31645 | 17.76874 | 41213 ft | 494 kts | 22° |
| 2026-04-26 08:36 | 52.37755 | 17.81965 | 41211 ft | 495 kts | 22° |
| 2026-04-26 08:36 | 52.43899 | 17.87102 | 41211 ft | 496 kts | 22° |
| 2026-04-26 08:37 | 52.50046 | 17.92257 | 41211 ft | 496 kts | 22° |
| 2026-04-26 08:37 | 52.56185 | 17.97421 | 41210 ft | 496 kts | 22° |
| 2026-04-26 08:38 | 52.62323 | 18.02583 | 41211 ft | 495 kts | 21° |
| 2026-04-26 08:38 | 52.68447 | 18.07625 | 41211 ft | 495 kts | 21° |
| 2026-04-26 08:39 | 52.74613 | 18.12683 | 41211 ft | 495 kts | 21° |
| 2026-04-26 08:39 | 52.80780 | 18.17783 | 41211 ft | 495 kts | 21° |
| 2026-04-26 08:40 | 52.86945 | 18.22909 | 41211 ft | 495 kts | 21° |
| 2026-04-26 08:40 | 52.93098 | 18.28043 | 41161 ft | 495 kts | 22° |
| 2026-04-26 08:41 | 52.99238 | 18.33184 | 41157 ft | 494 kts | 22° |
| 2026-04-26 08:41 | 53.05370 | 18.38332 | 41157 ft | 494 kts | 22° |
| 2026-04-26 08:42 | 53.11501 | 18.43495 | 41157 ft | 493 kts | 22° |
| 2026-04-26 08:42 | 53.17601 | 18.48648 | 41157 ft | 494 kts | 22° |
| 2026-04-26 08:43 | 53.23725 | 18.53839 | 41157 ft | 494 kts | 22° |
| 2026-04-26 08:43 | 53.29847 | 18.59045 | 41157 ft | 494 kts | 22° |
| 2026-04-26 08:44 | 53.35975 | 18.64273 | 41157 ft | 494 kts | 22° |
| 2026-04-26 08:44 | 53.41065 | 18.68628 | 41157 ft | 494 kts | 22° |
| 2026-04-26 08:45 | 53.48183 | 18.74738 | 41157 ft | 494 kts | 22° |
| 2026-04-26 08:45 | 53.54445 | 18.79263 | 41158 ft | 487 kts | 14° |
| 2026-04-26 08:46 | 53.60877 | 18.82800 | 41157 ft | 485 kts | 13° |
| 2026-04-26 08:46 | 53.67317 | 18.86190 | 41156 ft | 485 kts | 13° |
| 2026-04-26 08:47 | 53.73779 | 18.89589 | 41157 ft | 485 kts | 13° |
| 2026-04-26 08:47 | 53.80219 | 18.93005 | 41158 ft | 485 kts | 13° |
| 2026-04-26 08:48 | 53.86617 | 18.96420 | 41158 ft | 485 kts | 13° |
| 2026-04-26 08:48 | 53.93054 | 18.99868 | 41157 ft | 485 kts | 13° |
| 2026-04-26 08:49 | 53.99489 | 19.03327 | 41157 ft | 485 kts | 13° |
| 2026-04-26 08:49 | 54.05930 | 19.06801 | 41157 ft | 485 kts | 13° |
| 2026-04-26 08:50 | 54.12363 | 19.10281 | 41157 ft | 485 kts | 13° |
| 2026-04-26 08:50 | 54.18802 | 19.13776 | 41131 ft | 484 kts | 13° |
| 2026-04-26 08:51 | 54.28442 | 19.18526 | 41130 ft | 481 kts | 9° |
| 2026-04-26 08:52 | 54.34939 | 19.21385 | 41130 ft | 481 kts | 9° |
| 2026-04-26 08:52 | 54.41412 | 19.24304 | 41129 ft | 481 kts | 10° |
| 2026-04-26 08:53 | 54.47882 | 19.27292 | 41129 ft | 482 kts | 10° |
| 2026-04-26 08:53 | 54.54359 | 19.30311 | 41131 ft | 482 kts | 10° |
| 2026-04-26 08:54 | 54.60840 | 19.33342 | 41130 ft | 482 kts | 10° |
| 2026-04-26 08:54 | 54.67305 | 19.36371 | 41130 ft | 482 kts | 10° |
| 2026-04-26 08:55 | 54.73737 | 19.39394 | 41130 ft | 482 kts | 10° |
| 2026-04-26 08:55 | 54.80201 | 19.42447 | 41134 ft | 479 kts | 9° |
| 2026-04-26 08:56 | 54.86508 | 19.45443 | 41126 ft | 460 kts | 10° |
| 2026-04-26 08:56 | 54.92633 | 19.48353 | 41128 ft | 454 kts | 10° |
| 2026-04-26 08:57 | 54.98719 | 19.51240 | 41130 ft | 453 kts | 10° |
| 2026-04-26 08:57 | 55.04801 | 19.54138 | 41129 ft | 453 kts | 10° |
| 2026-04-26 08:58 | 55.10884 | 19.57050 | 41130 ft | 453 kts | 10° |
| 2026-04-26 08:58 | 55.16933 | 19.59958 | 41129 ft | 453 kts | 10° |
| 2026-04-26 08:59 | 55.23015 | 19.62890 | 41130 ft | 453 kts | 10° |
| 2026-04-26 08:59 | 55.29106 | 19.65837 | 41129 ft | 453 kts | 10° |
| 2026-04-26 09:00 | 55.35186 | 19.68787 | 41130 ft | 453 kts | 10° |
| 2026-04-26 09:00 | 55.41267 | 19.71743 | 41041 ft | 454 kts | 11° |
| 2026-04-26 09:01 | 55.47323 | 19.74700 | 41029 ft | 455 kts | 11° |
| 2026-04-26 09:01 | 55.53429 | 19.77693 | 41026 ft | 455 kts | 11° |
| 2026-04-26 09:02 | 55.59531 | 19.80695 | 41016 ft | 455 kts | 11° |
| 2026-04-26 09:02 | 55.65638 | 19.83706 | 41016 ft | 455 kts | 11° |
| 2026-04-26 09:03 | 55.71738 | 19.86724 | 41016 ft | 455 kts | 11° |
| 2026-04-26 09:03 | 55.77837 | 19.89750 | 41025 ft | 455 kts | 11° |
| 2026-04-26 09:04 | 55.83942 | 19.92790 | 41017 ft | 455 kts | 11° |
| 2026-04-26 09:04 | 55.89270 | 19.95451 | 41022 ft | 455 kts | 11° |
| 2026-04-26 09:05 | 55.95293 | 19.98468 | 41015 ft | 455 kts | 11° |
| 2026-04-26 09:05 | 56.00459 | 20.01064 | 40996 ft | 455 kts | 11° |
| 2026-04-26 09:06 | 56.06568 | 20.04142 | 40993 ft | 455 kts | 11° |
| 2026-04-26 09:06 | 56.12652 | 20.07356 | 40993 ft | 458 kts | 15° |
| 2026-04-26 09:07 | 56.18374 | 20.12590 | 40994 ft | 465 kts | 26° |
| 2026-04-26 09:07 | 56.23859 | 20.18839 | 40994 ft | 467 kts | 27° |
| 2026-04-26 09:08 | 56.29268 | 20.25215 | 40994 ft | 467 kts | 28° |
| 2026-04-26 09:08 | 56.34705 | 20.31637 | 40994 ft | 467 kts | 27° |
| 2026-04-26 09:09 | 56.40156 | 20.38063 | 40993 ft | 467 kts | 27° |
| 2026-04-26 09:09 | 56.45603 | 20.44492 | 40994 ft | 467 kts | 27° |
| 2026-04-26 09:10 | 56.51058 | 20.50951 | 40994 ft | 467 kts | 27° |
| 2026-04-26 09:10 | 56.56477 | 20.57389 | 40969 ft | 469 kts | 28° |
| 2026-04-26 09:11 | 56.61965 | 20.63928 | 40966 ft | 474 kts | 28° |
| 2026-04-26 09:11 | 56.67481 | 20.70534 | 40966 ft | 474 kts | 28° |
| 2026-04-26 09:12 | 56.72988 | 20.77155 | 40966 ft | 474 kts | 28° |
| 2026-04-26 09:12 | 56.78464 | 20.83758 | 40966 ft | 474 kts | 28° |
| 2026-04-26 09:13 | 56.83975 | 20.90427 | 40966 ft | 474 kts | 28° |
| 2026-04-26 09:13 | 56.89475 | 20.97105 | 40966 ft | 475 kts | 28° |
| 2026-04-26 09:14 | 56.94977 | 21.03810 | 40966 ft | 475 kts | 28° |
| 2026-04-26 09:14 | 57.00478 | 21.10538 | 40966 ft | 475 kts | 28° |
| 2026-04-26 09:15 | 57.05972 | 21.17281 | 40966 ft | 475 kts | 28° |
| 2026-04-26 09:15 | 57.11463 | 21.24042 | 40941 ft | 475 kts | 30° |
| 2026-04-26 09:16 | 57.16962 | 21.30839 | 40939 ft | 477 kts | 30° |
| 2026-04-26 09:16 | 57.22433 | 21.37631 | 40939 ft | 477 kts | 30° |
| 2026-04-26 09:17 | 57.27939 | 21.44492 | 40938 ft | 477 kts | 30° |
| 2026-04-26 09:17 | 57.33445 | 21.51375 | 40939 ft | 477 kts | 30° |
| 2026-04-26 09:18 | 57.38909 | 21.58368 | 40939 ft | 478 kts | 31° |
| 2026-04-26 09:18 | 57.44302 | 21.65608 | 40939 ft | 478 kts | 32° |
| 2026-04-26 09:19 | 57.49694 | 21.72881 | 40939 ft | 478 kts | 32° |
| 2026-04-26 09:19 | 57.55097 | 21.80141 | 40939 ft | 478 kts | 31° |
| 2026-04-26 09:20 | 57.60456 | 21.87345 | 40939 ft | 478 kts | 31° |
| 2026-04-26 09:20 | 57.65850 | 21.94620 | 40939 ft | 478 kts | 32° |
| 2026-04-26 09:21 | 57.71247 | 22.01934 | 40939 ft | 478 kts | 32° |
| 2026-04-26 09:21 | 57.75725 | 22.08026 | 40931 ft | 477 kts | 30° |
| 2026-04-26 09:21 | 57.78626 | 22.10975 | 40944 ft | 470 kts | 18° |
| 2026-04-26 09:22 | 57.81665 | 22.13206 | 40938 ft | 469 kts | 17° |
| 2026-04-26 09:22 | 57.87796 | 22.17422 | 40939 ft | 469 kts | 16° |
| 2026-04-26 09:23 | 57.93903 | 22.21586 | 40939 ft | 469 kts | 16° |
| 2026-04-26 09:23 | 58.00039 | 22.25772 | 40939 ft | 469 kts | 16° |
| 2026-04-26 09:24 | 58.06182 | 22.29976 | 40939 ft | 469 kts | 16° |
| 2026-04-26 09:24 | 58.12322 | 22.34191 | 40939 ft | 469 kts | 16° |
| 2026-04-26 09:25 | 58.18462 | 22.38422 | 40939 ft | 469 kts | 16° |
| 2026-04-26 09:25 | 58.24601 | 22.42667 | 40936 ft | 469 kts | 17° |
| 2026-04-26 09:26 | 58.30752 | 22.46933 | 40856 ft | 471 kts | 17° |
| 2026-04-26 09:26 | 58.36886 | 22.51209 | 40857 ft | 472 kts | 17° |
| 2026-04-26 09:27 | 58.43057 | 22.55525 | 40856 ft | 473 kts | 17° |
| 2026-04-26 09:27 | 58.49235 | 22.59862 | 40856 ft | 473 kts | 17° |
| 2026-04-26 09:28 | 58.55409 | 22.64212 | 40856 ft | 473 kts | 17° |
| 2026-04-26 09:28 | 58.61579 | 22.68576 | 40857 ft | 473 kts | 17° |
| 2026-04-26 09:29 | 58.67712 | 22.72931 | 40729 ft | 471 kts | 17° |
| 2026-04-26 09:29 | 58.70795 | 22.75125 | 40415 ft | 470 kts | 17° |
| 2026-04-26 09:29 | 58.73840 | 22.77299 | 39719 ft | 461 kts | 17° |
| 2026-04-26 09:29 | 58.76835 | 22.79442 | 39077 ft | 459 kts | 17° |
| 2026-04-26 09:30 | 58.79844 | 22.81594 | 38425 ft | 460 kts | 17° |
| 2026-04-26 09:30 | 58.82848 | 22.83748 | 37760 ft | 460 kts | 17° |
| 2026-04-26 09:30 | 58.85841 | 22.85898 | 37074 ft | 460 kts | 17° |
| 2026-04-26 09:30 | 58.88808 | 22.88034 | 36387 ft | 460 kts | 17° |
| 2026-04-26 09:31 | 58.91812 | 22.90201 | 35688 ft | 459 kts | 17° |
| 2026-04-26 09:31 | 58.94798 | 22.92360 | 34974 ft | 459 kts | 17° |
| 2026-04-26 09:31 | 58.97791 | 22.94527 | 34220 ft | 458 kts | 17° |
| 2026-04-26 09:31 | 59.00778 | 22.96693 | 33426 ft | 458 kts | 17° |
| 2026-04-26 09:32 | 59.03756 | 22.98856 | 32602 ft | 457 kts | 16° |
| 2026-04-26 09:32 | 59.06679 | 23.00991 | 31687 ft | 440 kts | 16° |
| 2026-04-26 09:32 | 59.09539 | 23.03079 | 30845 ft | 440 kts | 16° |
| 2026-04-26 09:32 | 59.12413 | 23.05173 | 29982 ft | 442 kts | 16° |
| 2026-04-26 09:33 | 59.15296 | 23.07280 | 29090 ft | 443 kts | 16° |
| 2026-04-26 09:33 | 59.18174 | 23.09388 | 28447 ft | 440 kts | 16° |
| 2026-04-26 09:33 | 59.21029 | 23.11486 | 27835 ft | 435 kts | 16° |
| 2026-04-26 09:33 | 59.23852 | 23.13565 | 27239 ft | 430 kts | 16° |
| 2026-04-26 09:34 | 59.26606 | 23.15595 | 26636 ft | 426 kts | 16° |
| 2026-04-26 09:34 | 59.29378 | 23.17643 | 26035 ft | 421 kts | 16° |
| 2026-04-26 09:34 | 59.32105 | 23.19660 | 25450 ft | 416 kts | 17° |
| 2026-04-26 09:34 | 59.34118 | 23.21151 | 25017 ft | 413 kts | 17° |
| 2026-04-26 09:35 | 59.35468 | 23.22153 | 24728 ft | 410 kts | 17° |
| 2026-04-26 09:35 | 59.37693 | 23.23801 | 24250 ft | 406 kts | 18° |
| 2026-04-26 09:35 | 59.40328 | 23.25752 | 23691 ft | 405 kts | 18° |
| 2026-04-26 09:36 | 59.42974 | 23.27722 | 23128 ft | 407 kts | 18° |
| 2026-04-26 09:36 | 59.45621 | 23.29699 | 22560 ft | 406 kts | 18° |
| 2026-04-26 09:36 | 59.48252 | 23.31667 | 22002 ft | 403 kts | 18° |
| 2026-04-26 09:36 | 59.50857 | 23.33619 | 21428 ft | 399 kts | 18° |
| 2026-04-26 09:37 | 59.53449 | 23.35563 | 20883 ft | 396 kts | 18° |
| 2026-04-26 09:37 | 59.56014 | 23.37490 | 20327 ft | 393 kts | 19° |
| 2026-04-26 09:37 | 59.58557 | 23.39404 | 19771 ft | 390 kts | 19° |
| 2026-04-26 09:37 | 59.61087 | 23.41309 | 19213 ft | 387 kts | 19° |
| 2026-04-26 09:38 | 59.63593 | 23.43200 | 18655 ft | 384 kts | 19° |
| 2026-04-26 09:38 | 59.66087 | 23.45085 | 18098 ft | 381 kts | 19° |
| 2026-04-26 09:38 | 59.68558 | 23.46956 | 17535 ft | 379 kts | 19° |
| 2026-04-26 09:38 | 59.71012 | 23.48818 | 16963 ft | 375 kts | 19° |
| 2026-04-26 09:39 | 59.73439 | 23.50661 | 16413 ft | 372 kts | 19° |
| 2026-04-26 09:39 | 59.75818 | 23.52472 | 15856 ft | 367 kts | 19° |
| 2026-04-26 09:39 | 59.78193 | 23.54282 | 15300 ft | 363 kts | 19° |
| 2026-04-26 09:39 | 59.80520 | 23.56058 | 14934 ft | 347 kts | 19° |
| 2026-04-26 09:40 | 59.82640 | 23.57774 | 14789 ft | 313 kts | 22° |
| 2026-04-26 09:40 | 59.84409 | 23.59973 | 14648 ft | 290 kts | 36° |
| 2026-04-26 09:40 | 59.85763 | 23.62875 | 14504 ft | 285 kts | 50° |
| 2026-04-26 09:40 | 59.86790 | 23.66203 | 14381 ft | 280 kts | 54° |
| 2026-04-26 09:41 | 59.87734 | 23.69588 | 14273 ft | 279 kts | 55° |
| 2026-04-26 09:41 | 59.88672 | 23.72968 | 14124 ft | 278 kts | 55° |
| 2026-04-26 09:41 | 59.89608 | 23.76329 | 14012 ft | 277 kts | 54° |
| 2026-04-26 09:41 | 59.90543 | 23.79683 | 13880 ft | 277 kts | 54° |
| 2026-04-26 09:42 | 59.91477 | 23.83031 | 13656 ft | 276 kts | 54° |
| 2026-04-26 09:42 | 59.92387 | 23.86388 | 13376 ft | 275 kts | 56° |
| 2026-04-26 09:42 | 59.93269 | 23.89763 | 13078 ft | 274 kts | 56° |
| 2026-04-26 09:42 | 59.94145 | 23.93116 | 12806 ft | 272 kts | 56° |
| 2026-04-26 09:43 | 59.95020 | 23.96460 | 12516 ft | 271 kts | 56° |
| 2026-04-26 09:43 | 59.95891 | 23.99784 | 12227 ft | 269 kts | 56° |
| 2026-04-26 09:43 | 59.96759 | 24.03089 | 11948 ft | 268 kts | 55° |
| 2026-04-26 09:43 | 59.97620 | 24.06371 | 11660 ft | 266 kts | 55° |
| 2026-04-26 09:44 | 59.98465 | 24.09597 | 11379 ft | 265 kts | 55° |
| 2026-04-26 09:44 | 59.99315 | 24.12847 | 11094 ft | 263 kts | 55° |
| 2026-04-26 09:44 | 60.00161 | 24.16084 | 10806 ft | 262 kts | 55° |
| 2026-04-26 09:44 | 60.01001 | 24.19305 | 10514 ft | 260 kts | 55° |
| 2026-04-26 09:45 | 60.01834 | 24.22499 | 10219 ft | 258 kts | 55° |
| 2026-04-26 09:45 | 60.02664 | 24.25684 | 9921 ft | 257 kts | 55° |
| 2026-04-26 09:45 | 60.03490 | 24.28855 | 9601 ft | 256 kts | 55° |
| 2026-04-26 09:45 | 60.04331 | 24.32084 | 9379 ft | 268 kts | 55° |
| 2026-04-26 09:46 | 60.05196 | 24.35410 | 9211 ft | 264 kts | 56° |
| 2026-04-26 09:46 | 60.06017 | 24.38614 | 8756 ft | 257 kts | 55° |
| 2026-04-26 09:46 | 60.06837 | 24.41783 | 8444 ft | 261 kts | 55° |
| 2026-04-26 09:46 | 60.07666 | 24.44997 | 8124 ft | 259 kts | 55° |
| 2026-04-26 09:47 | 60.08483 | 24.48176 | 7783 ft | 256 kts | 55° |
| 2026-04-26 09:47 | 60.09286 | 24.51300 | 7509 ft | 253 kts | 55° |
| 2026-04-26 09:47 | 60.10095 | 24.54442 | 7247 ft | 252 kts | 54° |
| 2026-04-26 09:47 | 60.10888 | 24.57544 | 6928 ft | 250 kts | 54° |
| 2026-04-26 09:48 | 60.11680 | 24.60636 | 6615 ft | 248 kts | 54° |
| 2026-04-26 09:48 | 60.12468 | 24.63714 | 6326 ft | 247 kts | 54° |
| 2026-04-26 09:48 | 60.13251 | 24.66777 | 6038 ft | 246 kts | 54° |
| 2026-04-26 09:48 | 60.14020 | 24.69783 | 5750 ft | 244 kts | 54° |
| 2026-04-26 09:49 | 60.14797 | 24.72824 | 5476 ft | 245 kts | 54° |
| 2026-04-26 09:49 | 60.15566 | 24.75858 | 5192 ft | 242 kts | 54° |
| 2026-04-26 09:49 | 60.16317 | 24.78829 | 4932 ft | 231 kts | 53° |
| 2026-04-26 09:49 | 60.17020 | 24.81630 | 4629 ft | 219 kts | 53° |
| 2026-04-26 09:50 | 60.17679 | 24.84308 | 4440 ft | 210 kts | 54° |
| 2026-04-26 09:50 | 60.18119 | 24.87197 | 4304 ft | 224 kts | 71° |
| 2026-04-26 09:50 | 60.18018 | 24.90371 | 4158 ft | 242 kts | 95° |
| 2026-04-26 09:50 | 60.17196 | 24.93421 | 4021 ft | 258 kts | 124° |
| 2026-04-26 09:51 | 60.15763 | 24.95607 | 3939 ft | 259 kts | 147° |
| 2026-04-26 09:51 | 60.14238 | 24.97397 | 3826 ft | 246 kts | 137° |
| 2026-04-26 09:51 | 60.13288 | 24.99924 | 3716 ft | 213 kts | 98° |
| 2026-04-26 09:51 | 60.13158 | 25.02604 | 3505 ft | 177 kts | 68° |
| 2026-04-26 09:52 | 60.13551 | 25.04865 | 3370 ft | 177 kts | 51° |
| 2026-04-26 09:52 | 60.14673 | 25.09196 | 3150 ft | 159 kts | 47° |
| 2026-04-26 09:52 | 60.15310 | 25.10821 | 2901 ft | 139 kts | 30° |
| 2026-04-26 09:53 | 60.16092 | 25.11778 | 2762 ft | 127 kts | 12° |
| 2026-04-26 09:53 | 60.16934 | 25.12137 | 2728 ft | 122 kts | 357° |
| 2026-04-26 09:53 | 60.17752 | 25.11960 | 2683 ft | 120 kts | 344° |
| 2026-04-26 09:53 | 60.18516 | 25.11305 | 2632 ft | 120 kts | 334° |
| 2026-04-26 09:54 | 60.19260 | 25.10550 | 2586 ft | 120 kts | 335° |
| 2026-04-26 09:54 | 60.20002 | 25.09818 | 2507 ft | 115 kts | 335° |
| 2026-04-26 09:54 | 60.20699 | 25.09100 | 2324 ft | 110 kts | 334° |
| 2026-04-26 09:54 | 60.21383 | 25.08401 | 2192 ft | 112 kts | 332° |
| 2026-04-26 09:55 | 60.22095 | 25.07669 | 2051 ft | 117 kts | 333° |
| 2026-04-26 09:55 | 60.22819 | 25.06931 | 1879 ft | 116 kts | 333° |
| 2026-04-26 09:55 | 60.23539 | 25.06188 | 1730 ft | 116 kts | 332° |
| 2026-04-26 09:55 | 60.24255 | 25.05449 | 1570 ft | 115 kts | 333° |
| 2026-04-26 09:56 | 60.24969 | 25.04719 | 1429 ft | 115 kts | 333° |
| 2026-04-26 09:56 | 60.25672 | 25.04001 | 1281 ft | 114 kts | 333° |
| 2026-04-26 09:56 | 60.26382 | 25.03270 | 1112 ft | 114 kts | 333° |
| 2026-04-26 09:56 | 60.27088 | 25.02544 | 984 ft | 114 kts | 333° |
| 2026-04-26 09:57 | 60.27793 | 25.01817 | 813 ft | 114 kts | 333° |
| 2026-04-26 09:57 | 60.28504 | 25.01066 | 648 ft | 117 kts | 332° |
| 2026-04-26 09:57 | 60.29237 | 25.00302 | 532 ft | 120 kts | 334° |
| 2026-04-26 09:57 | 60.29993 | 24.99557 | 375 ft | 122 kts | 333° |
| 2026-04-26 09:58 | 60.30748 | 24.98786 | 215 ft | 122 kts | 332° |
| 2026-04-26 09:58 | 60.31492 | 24.98022 | 162 ft | 111 kts | 334° |
| 2026-04-26 09:58 | 60.32029 | 24.97474 | 160 ft | 62 kts | 333° |
| 2026-04-26 09:58 | 60.32256 | 24.97241 | 164 ft | 11 kts | 333° |
| 2026-04-26 09:59 | 60.32319 | 24.97176 | 165 ft | 17 kts | 333° |
| 2026-04-26 09:59 | 60.32345 | 24.97147 | 167 ft | 5 kts | 329° |
| 2026-04-26 09:59 | 60.32379 | 24.97004 | 170 ft | 13 kts | 265° |
| 2026-04-26 09:59 | 60.32358 | 24.96913 | 171 ft | 10 kts | 232° |
| 2026-04-26 10:00 | 60.32277 | 24.96884 | 171 ft | 15 kts | 161° |
| 2026-04-26 10:00 | 60.32196 | 24.96961 | 171 ft | 0 kts | 153° |